Magnate — H9ZN — position and weather

sailwx.info

Track history (hours):
 
Tides and Currents Weather Stations Pressure Air Temp Water Temp Dewpoint Dewpoint Depression Visibility Wind Speed Wind Dir Waves Ship Positions

Magnate

Last reported at 2017-May-16 23:42 UTC. Time now 2017-May-22 17:30 UTC.
Position N 27°09' W 014°39'.

Length 140 m; draft 8.1 m.

Type: Cargo ship. MMSI: 357055000.

Date/timePositionNaut miles runAvg speedWind from/ knotsBaromVisibWave heightAir tempDewpointWater temp
2017-May-16 23:42N 27°09' W 014°39'411.8
2017-May-16 23:23N 27°12' W 014°36'511.8
2017-May-16 22:59N 27°15' W 014°33'611.7
2017-May-16 22:28N 27°19' W 014°28'511.7
2017-May-16 22:00N 27°23' W 014°24'611.9
2017-May-16 21:30N 27°27' W 014°19'612.2
2017-May-16 21:00N 27°31' W 014°14'612.3
2017-May-16 20:30N 27°36' W 014°09'612.3
2017-May-16 20:00N 27°40' W 014°04'611.9
2017-May-16 19:30N 27°44' W 013°58'6 1.5
2017-May-16 15:39N 27°48' W 013°54'0 0.3
2017-May-16 15:24N 27°48' W 013°54'1 3.7
2017-May-16 15:00N 27°49' W 013°53'1112.0
2017-May-16 14:05N 27°56' W 013°43'5 3.9
2017-May-16 12:53N 27°59' W 013°39'0 1.1
2017-May-16 12:30N 27°59' W 013°38'810.6
2017-May-16 11:47N 28°06' W 013°35'311.7
2017-May-16 11:30N 28°09' W 013°33'712.3
2017-May-16 10:56N 28°15' W 013°29'1212.4
2017-May-16 09:57N 28°25' W 013°22'2312.5
2017-May-16 08:06N 28°45' W 013°08'512.0
2017-May-16 07:42N 28°49' W 013°05'7712.0
2017-May-16 01:18N 29°54' W 012°18'412.0
2017-May-16 01:00N 29°57' W 012°16'712.1
2017-May-16 00:25N 30°03' W 012°11'612.2
2017-May-15 23:57N 30°08' W 012°08'512.2
2017-May-15 23:30N 30°12' W 012°05'612.3
2017-May-15 23:00N 30°17' W 012°01'712.4
2017-May-15 22:27N 30°23' W 011°57'612.3
2017-May-15 22:00N 30°28' W 011°53'612.3
2017-May-15 21:30N 30°33' W 011°49'612.4
2017-May-15 21:00N 30°38' W 011°45'812.4
2017-May-15 20:21N 30°45' W 011°40'412.3
2017-May-15 20:00N 30°49' W 011°38'612.2
2017-May-15 19:29N 30°54' W 011°34'612.1
2017-May-15 19:00N 30°59' W 011°30'1211.8
2017-May-15 18:01N 31°09' W 011°23'012.1
2017-May-15 18:00N 31°09' W 011°23'911.9
2017-May-15 17:14N 31°17' W 011°17'311.9
2017-May-15 17:00N 31°19' W 011°15'611.8
2017-May-15 16:30N 31°24' W 011°12'611.9
2017-May-15 16:00N 31°29' W 011°08'611.7
2017-May-15 15:30N 31°34' W 011°04'611.9
2017-May-15 14:59N 31°39' W 011°00'1411.8
2017-May-15 13:47N 31°51' W 010°52'511.8
2017-May-15 13:20N 31°56' W 010°48'511.8
2017-May-15 12:56N 31°60' W 010°45'6911.3
2017-May-15 06:48N 32°42' W 009°40'  
2017-May-07 20:45N 28°28' W 015°00'2212.4
2017-May-07 18:58N 28°12' W 015°18'8 1.3
2017-May-07 13:02N 28°07' W 015°24'0 0.3
2017-May-07 12:57N 28°07' W 015°24'0 0.1
2017-May-07 12:13N 28°07' W 015°24'1 2.8
2017-May-07 11:53N 28°07' W 015°23'  
Track history (hours):
 
Tides and Currents Weather Stations Pressure Air Temp Water Temp Dewpoint Dewpoint Depression Visibility Wind Speed Wind Dir Waves Ship Positions

Magnate

Last reported at 2017-May-16 23:42 UTC. Time now 2017-May-22 17:30 UTC.
Position N 27°09' W 014°39'.

Length 140 m; draft 8.1 m.

Type: Cargo ship. MMSI: 357055000.

Date/timePositionNaut miles runAvg speedWind from/ knotsBaromVisibWave heightAir tempDewpointWater temp
2017-May-16 23:42N 27°09' W 014°39'411.8
2017-May-16 23:23N 27°12' W 014°36'511.8
2017-May-16 22:59N 27°15' W 014°33'611.7
2017-May-16 22:28N 27°19' W 014°28'511.7
2017-May-16 22:00N 27°23' W 014°24'611.9
2017-May-16 21:30N 27°27' W 014°19'612.2
2017-May-16 21:00N 27°31' W 014°14'612.3
2017-May-16 20:30N 27°36' W 014°09'612.3
2017-May-16 20:00N 27°40' W 014°04'611.9
2017-May-16 19:30N 27°44' W 013°58'6 1.5
2017-May-16 15:39N 27°48' W 013°54'0 0.3
2017-May-16 15:24N 27°48' W 013°54'1 3.7
2017-May-16 15:00N 27°49' W 013°53'1112.0
2017-May-16 14:05N 27°56' W 013°43'5 3.9
2017-May-16 12:53N 27°59' W 013°39'0 1.1
2017-May-16 12:30N 27°59' W 013°38'810.6
2017-May-16 11:47N 28°06' W 013°35'311.7
2017-May-16 11:30N 28°09' W 013°33'712.3
2017-May-16 10:56N 28°15' W 013°29'1212.4
2017-May-16 09:57N 28°25' W 013°22'2312.5
2017-May-16 08:06N 28°45' W 013°08'512.0
2017-May-16 07:42N 28°49' W 013°05'7712.0
2017-May-16 01:18N 29°54' W 012°18'412.0
2017-May-16 01:00N 29°57' W 012°16'712.1
2017-May-16 00:25N 30°03' W 012°11'612.2
2017-May-15 23:57N 30°08' W 012°08'512.2
2017-May-15 23:30N 30°12' W 012°05'612.3
2017-May-15 23:00N 30°17' W 012°01'712.4
2017-May-15 22:27N 30°23' W 011°57'612.3
2017-May-15 22:00N 30°28' W 011°53'612.3
2017-May-15 21:30N 30°33' W 011°49'612.4
2017-May-15 21:00N 30°38' W 011°45'812.4
2017-May-15 20:21N 30°45' W 011°40'412.3
2017-May-15 20:00N 30°49' W 011°38'612.2
2017-May-15 19:29N 30°54' W 011°34'612.1
2017-May-15 19:00N 30°59' W 011°30'1211.8
2017-May-15 18:01N 31°09' W 011°23'012.1
2017-May-15 18:00N 31°09' W 011°23'911.9
2017-May-15 17:14N 31°17' W 011°17'311.9
2017-May-15 17:00N 31°19' W 011°15'611.8
2017-May-15 16:30N 31°24' W 011°12'611.9
2017-May-15 16:00N 31°29' W 011°08'611.7
2017-May-15 15:30N 31°34' W 011°04'611.9
2017-May-15 14:59N 31°39' W 011°00'1411.8
2017-May-15 13:47N 31°51' W 010°52'511.8
2017-May-15 13:20N 31°56' W 010°48'511.8
2017-May-15 12:56N 31°60' W 010°45'6911.3
2017-May-15 06:48N 32°42' W 009°40'  
2017-May-07 20:45N 28°28' W 015°00'2212.4
2017-May-07 18:58N 28°12' W 015°18'8 1.3
2017-May-07 13:02N 28°07' W 015°24'0 0.3
2017-May-07 12:57N 28°07' W 015°24'0 0.1
2017-May-07 12:13N 28°07' W 015°24'1 2.8
2017-May-07 11:53N 28°07' W 015°23'  

Dump ship's entire track history